createdAt,value
2019-05-29T00:00:54.461Z,1010.32
2019-05-29T00:01:54.871Z,1010.34
2019-05-29T00:02:55.306Z,1010.35
2019-05-29T00:03:55.730Z,1010.31
2019-05-29T00:04:56.163Z,1010.33
2019-05-29T00:05:56.586Z,1010.36
2019-05-29T00:06:57.020Z,1010.36
2019-05-29T00:07:57.442Z,1010.42
2019-05-29T00:08:57.881Z,1010.37
2019-05-29T00:09:58.304Z,1010.36
2019-05-29T00:10:58.736Z,1010.40
2019-05-29T00:11:59.174Z,1010.43
2019-05-29T00:12:59.587Z,1010.42
2019-05-29T00:14:00.023Z,1010.44
2019-05-29T00:15:00.453Z,1010.45
2019-05-29T00:16:00.881Z,1010.49
2019-05-29T00:17:01.309Z,1010.48
2019-05-29T00:18:01.750Z,1010.50
2019-05-29T00:19:02.172Z,1010.50
2019-05-29T00:20:02.636Z,1010.52
2019-05-29T00:21:03.050Z,1010.55
2019-05-29T00:22:03.460Z,1010.56
2019-05-29T00:23:03.889Z,1010.53
2019-05-29T00:24:04.317Z,1010.52
2019-05-29T00:25:04.754Z,1010.58
2019-05-29T00:26:06.245Z,1010.60
2019-05-29T00:27:05.600Z,1010.59
2019-05-29T00:28:06.471Z,1010.61
2019-05-29T00:29:07.473Z,1010.58
2019-05-29T00:30:07.015Z,1010.59
2019-05-29T00:31:07.745Z,1010.57
2019-05-29T00:32:08.827Z,1010.53
2019-05-29T00:33:08.181Z,1010.51
2019-05-29T00:35:42.682Z,1010.56
2019-05-29T00:36:43.108Z,1010.55
2019-05-29T00:38:37.663Z,1010.59
2019-05-29T00:39:38.085Z,1010.60
2019-05-29T00:41:32.629Z,1010.64
2019-05-29T00:42:33.071Z,1010.66
2019-05-29T00:46:01.738Z,1010.62
2019-05-29T00:47:02.155Z,1010.59
2019-05-29T00:48:56.713Z,1010.60
2019-05-29T00:49:57.128Z,1010.62
2019-05-29T00:51:52.669Z,1010.66
2019-05-29T00:52:53.101Z,1010.71
2019-05-29T00:54:47.662Z,1010.72
2019-05-29T00:55:48.088Z,1010.71
2019-05-29T00:57:42.640Z,1010.70
2019-05-29T00:58:43.073Z,1010.72
2019-05-29T01:00:37.669Z,1010.71
2019-05-29T01:01:38.099Z,1010.72
2019-05-29T01:03:32.661Z,1010.73
2019-05-29T01:04:33.078Z,1010.76
2019-05-29T01:06:27.631Z,1010.76
2019-05-29T01:07:28.071Z,1010.80
2019-05-29T01:09:22.612Z,1010.81
2019-05-29T01:10:23.031Z,1010.85
2019-05-29T01:12:17.585Z,1010.83
2019-05-29T01:13:19.144Z,1010.83
2019-05-29T01:15:13.555Z,1010.83
2019-05-29T01:16:13.977Z,1010.86
2019-05-29T01:18:08.535Z,1010.84
2019-05-29T01:19:08.963Z,1010.88
2019-05-29T01:21:04.494Z,1010.91
2019-05-29T01:22:04.933Z,1010.96
2019-05-29T01:23:59.491Z,1011.02
2019-05-29T01:24:59.912Z,1011.00
2019-05-29T01:26:54.503Z,1011.03
2019-05-29T01:27:54.899Z,1011.10
2019-05-29T01:29:49.459Z,1011.11
2019-05-29T01:30:51.534Z,1011.14
2019-05-29T01:32:45.420Z,1011.14
2019-05-29T01:33:45.850Z,1011.15
2019-05-29T01:35:40.396Z,1011.17
2019-05-29T01:36:40.820Z,1011.23
2019-05-29T01:38:35.393Z,1011.23
2019-05-29T01:39:35.814Z,1011.30
2019-05-29T01:41:31.365Z,1011.35
2019-05-29T01:42:31.782Z,1011.29
2019-05-29T01:44:27.841Z,1011.36
2019-05-29T01:45:27.775Z,1011.34
2019-05-29T01:47:22.299Z,1011.40
2019-05-29T01:48:23.639Z,1011.50
2019-05-29T01:50:17.677Z,1011.51
2019-05-29T01:51:17.712Z,1011.58
2019-05-29T01:53:12.266Z,1011.58
2019-05-29T01:54:12.684Z,1011.62
2019-05-29T01:56:07.237Z,1011.63
2019-05-29T01:57:07.660Z,1011.61
2019-05-29T01:59:02.223Z,1011.58
2019-05-29T02:00:02.657Z,1011.59
2019-05-29T02:01:03.073Z,1011.59
2019-05-29T02:02:03.508Z,1011.58
2019-05-29T02:03:03.931Z,1011.61
2019-05-29T02:04:04.357Z,1011.61
2019-05-29T02:05:04.787Z,1011.65
2019-05-29T02:06:05.222Z,1011.64
2019-05-29T02:07:05.642Z,1011.69
2019-05-29T02:08:06.077Z,1011.71
2019-05-29T02:09:06.501Z,1011.74
2019-05-29T02:10:06.927Z,1011.71
2019-05-29T02:11:07.358Z,1011.74
2019-05-29T02:12:07.785Z,1011.73
2019-05-29T02:13:08.213Z,1011.76
2019-05-29T02:14:08.647Z,1011.73
2019-05-29T02:15:22.988Z,1011.73
2019-05-29T02:16:09.502Z,1011.73
2019-05-29T02:17:09.924Z,1011.74
2019-05-29T02:18:10.357Z,1011.73
2019-05-29T02:19:10.790Z,1011.74
2019-05-29T02:20:11.212Z,1011.71
2019-05-29T02:21:11.638Z,1011.71
2019-05-29T02:22:12.084Z,1011.72
2019-05-29T02:23:12.535Z,1011.74
2019-05-29T02:24:12.933Z,1011.76
2019-05-29T02:25:15.920Z,1011.78
2019-05-29T02:26:13.781Z,1011.86
2019-05-29T02:27:14.210Z,1011.87
2019-05-29T02:28:14.639Z,1011.86
2019-05-29T02:29:15.068Z,1011.86
2019-05-29T02:30:17.830Z,1011.86
2019-05-29T02:31:17.638Z,1011.89
2019-05-29T02:32:17.676Z,1011.86
2019-05-29T02:33:17.577Z,1011.87
2019-05-29T02:34:17.552Z,1011.85
2019-05-29T02:35:17.961Z,1011.84
2019-05-29T02:36:18.060Z,1011.87
2019-05-29T02:37:19.947Z,1011.88
2019-05-29T02:38:20.311Z,1011.91
2019-05-29T02:39:21.049Z,1011.90
2019-05-29T02:40:21.288Z,1011.88
2019-05-29T02:41:21.668Z,1011.90
2019-05-29T02:42:20.978Z,1011.91
2019-05-29T02:43:21.497Z,1011.94
2019-05-29T02:44:23.332Z,1011.96
2019-05-29T02:45:23.833Z,1011.89
2019-05-29T02:46:23.983Z,1011.97
2019-05-29T02:47:23.560Z,1012.01
2019-05-29T02:48:24.950Z,1012.02
2019-05-29T02:49:23.950Z,1012.05
2019-05-29T02:50:24.563Z,1012.10
2019-05-29T02:51:26.365Z,1012.08
2019-05-29T02:52:26.338Z,1012.14
2019-05-29T02:53:26.192Z,1012.08
2019-05-29T02:54:27.200Z,1012.10
2019-05-29T02:55:26.895Z,1012.13
2019-05-29T02:56:27.049Z,1012.14
2019-05-29T02:57:27.140Z,1012.12
2019-05-29T02:58:28.215Z,1012.18
2019-05-29T02:59:29.641Z,1012.18
2019-05-29T03:00:29.295Z,1012.19
2019-05-29T03:01:29.746Z,1012.19
2019-05-29T03:02:30.138Z,1012.23
2019-05-29T03:03:33.167Z,1012.21
2019-05-29T03:04:30.345Z,1012.26
2019-05-29T03:05:31.986Z,1012.26
2019-05-29T03:06:32.337Z,1012.26
2019-05-29T03:07:32.781Z,1012.25
2019-05-29T03:08:33.574Z,1012.28
2019-05-29T03:09:32.663Z,1012.33
2019-05-29T03:10:33.167Z,1012.37
2019-05-29T03:11:33.492Z,1012.39
2019-05-29T03:12:33.807Z,1012.40
2019-05-29T03:13:33.910Z,1012.43
2019-05-29T03:14:34.898Z,1012.42
2019-05-29T03:15:34.765Z,1012.49
2019-05-29T03:16:35.189Z,1012.46
2019-05-29T03:17:35.617Z,1012.45
2019-05-29T03:18:36.049Z,1012.54
2019-05-29T03:19:36.473Z,1012.56
2019-05-29T03:20:36.899Z,1012.59
2019-05-29T03:21:37.326Z,1012.60
2019-05-29T03:22:37.758Z,1012.61
2019-05-29T03:23:38.189Z,1012.64
2019-05-29T03:24:38.698Z,1012.64
2019-05-29T03:25:46.217Z,1012.68
2019-05-29T03:27:33.948Z,1012.69
2019-05-29T03:28:34.972Z,1012.68
2019-05-29T03:30:31.810Z,1012.69
2019-05-29T03:31:36.843Z,1012.75
2019-05-29T03:33:27.154Z,1012.76
2019-05-29T03:34:27.683Z,1012.80
2019-05-29T03:36:19.519Z,1012.88
2019-05-29T03:37:19.938Z,1012.86
2019-05-29T03:39:14.509Z,1012.93
2019-05-29T03:40:14.940Z,1012.93
2019-05-29T03:42:09.523Z,1012.96
2019-05-29T03:43:09.932Z,1013.04
2019-05-29T03:45:05.475Z,1013.03
2019-05-29T03:46:05.933Z,1013.09
2019-05-29T03:48:00.450Z,1013.10
2019-05-29T03:49:00.877Z,1013.12
2019-05-29T03:50:55.439Z,1013.18
2019-05-29T03:51:55.851Z,1013.22
2019-05-29T03:53:50.411Z,1013.32
2019-05-29T03:54:50.845Z,1013.31
2019-05-29T03:56:45.439Z,1013.31
2019-05-29T03:57:45.824Z,1013.32
2019-05-29T03:59:40.387Z,1013.39
2019-05-29T04:00:46.193Z,1013.38
2019-05-29T04:02:36.159Z,1013.45
2019-05-29T04:03:37.701Z,1013.45
2019-05-29T04:05:33.246Z,1013.47
2019-05-29T04:06:33.244Z,1013.52
2019-05-29T04:08:27.412Z,1013.54
2019-05-29T04:09:27.176Z,1013.51
2019-05-29T04:11:21.318Z,1013.63
2019-05-29T04:12:21.741Z,1013.58
2019-05-29T04:14:16.296Z,1013.66
2019-05-29T04:15:16.723Z,1013.66
2019-05-29T04:17:11.318Z,1013.70
2019-05-29T04:18:11.684Z,1013.70
2019-05-29T04:20:06.248Z,1013.68
2019-05-29T04:21:06.664Z,1013.73
2019-05-29T04:23:01.223Z,1013.76
2019-05-29T04:24:01.649Z,1013.78
2019-05-29T04:25:56.223Z,1013.79
2019-05-29T04:26:56.641Z,1013.78
2019-05-29T04:28:52.161Z,1013.78
2019-05-29T04:29:52.605Z,1013.79
2019-05-29T04:31:47.155Z,1013.81
2019-05-29T04:32:47.577Z,1013.81
2019-05-29T04:34:42.125Z,1013.91
2019-05-29T04:35:42.555Z,1013.88
2019-05-29T04:37:39.437Z,1013.88
2019-05-29T04:38:38.444Z,1013.91
2019-05-29T04:40:32.677Z,1013.93
2019-05-29T04:41:32.831Z,1013.98
2019-05-29T04:43:28.615Z,1014.02
2019-05-29T04:44:28.802Z,1014.05
2019-05-29T04:46:22.060Z,1014.09
2019-05-29T04:47:22.491Z,1014.06
2019-05-29T04:49:20.132Z,1014.08
2019-05-29T04:50:17.474Z,1014.12
2019-05-29T04:52:13.006Z,1014.18
2019-05-29T04:53:13.434Z,1014.14
2019-05-29T04:55:07.984Z,1014.16
2019-05-29T04:56:08.411Z,1014.19
2019-05-29T04:58:03.028Z,1014.20
2019-05-29T04:59:03.397Z,1014.25
2019-05-29T05:00:59.693Z,1014.24
2019-05-29T05:01:59.357Z,1014.27
2019-05-29T05:03:53.911Z,1014.24
2019-05-29T05:04:54.342Z,1014.29
2019-05-29T05:06:49.899Z,1014.29
2019-05-29T05:07:50.315Z,1014.34
2019-05-29T05:09:44.871Z,1014.36
2019-05-29T05:10:45.304Z,1014.37
2019-05-29T05:12:40.183Z,1014.47
2019-05-29T05:13:40.300Z,1014.45
2019-05-29T05:15:36.016Z,1014.54
2019-05-29T05:16:36.261Z,1014.51
2019-05-29T05:18:31.770Z,1014.52
2019-05-29T05:19:31.814Z,1014.57
2019-05-29T05:21:25.813Z,1014.57
2019-05-29T05:22:26.235Z,1014.58
2019-05-29T05:24:20.803Z,1014.63
2019-05-29T05:25:21.224Z,1014.62
2019-05-29T05:27:16.775Z,1014.66
2019-05-29T05:28:17.205Z,1014.70
2019-05-29T05:30:11.751Z,1014.74
2019-05-29T05:31:12.180Z,1014.73
2019-05-29T05:33:06.762Z,1014.76
2019-05-29T05:34:07.186Z,1014.76
2019-05-29T05:36:01.752Z,1014.78
2019-05-29T05:37:02.179Z,1014.79
2019-05-29T05:38:57.726Z,1014.77
2019-05-29T05:39:58.157Z,1014.85
2019-05-29T05:41:53.708Z,1014.83
2019-05-29T05:42:54.124Z,1014.86
2019-05-29T05:44:48.688Z,1014.92
2019-05-29T05:45:49.119Z,1014.92
2019-05-29T05:47:56.434Z,1015.00
2019-05-29T05:48:45.089Z,1015.01
2019-05-29T05:50:41.496Z,1015.05
2019-05-29T05:51:44.186Z,1015.07
2019-05-29T05:53:35.740Z,1015.10
2019-05-29T05:54:36.093Z,1015.09
2019-05-29T05:56:31.429Z,1015.14
2019-05-29T05:57:31.474Z,1015.17
2019-05-29T05:59:25.771Z,1015.11
2019-05-29T06:00:26.189Z,1015.18
2019-05-29T06:02:21.738Z,1015.29
2019-05-29T06:03:22.172Z,1015.31
2019-05-29T06:05:16.767Z,1015.31
2019-05-29T06:06:17.157Z,1015.32
2019-05-29T06:08:15.777Z,1015.40
2019-05-29T06:09:16.206Z,1015.42
2019-05-29T06:10:16.635Z,1015.41
2019-05-29T06:11:17.085Z,1015.42
2019-05-29T06:12:17.503Z,1015.46
2019-05-29T06:13:17.968Z,1015.50
2019-05-29T06:14:18.375Z,1015.47
2019-05-29T06:15:18.811Z,1015.52
2019-05-29T06:16:19.246Z,1015.49
2019-05-29T06:17:22.074Z,1015.49
2019-05-29T06:18:21.789Z,1015.47
2019-05-29T06:19:20.548Z,1015.52
2019-05-29T06:20:22.536Z,1015.53
2019-05-29T06:21:21.415Z,1015.54
2019-05-29T06:22:21.851Z,1015.57
2019-05-29T06:23:22.283Z,1015.57
2019-05-29T06:24:22.721Z,1015.55
2019-05-29T06:25:23.156Z,1015.57
2019-05-29T06:26:23.594Z,1015.57
2019-05-29T06:27:24.024Z,1015.60
2019-05-29T06:28:24.463Z,1015.63
2019-05-29T06:29:24.949Z,1015.60
2019-05-29T06:30:25.334Z,1015.61
2019-05-29T06:31:27.343Z,1015.61
2019-05-29T06:32:26.209Z,1015.61
2019-05-29T06:33:26.645Z,1015.65
2019-05-29T06:34:27.074Z,1015.64
2019-05-29T06:35:27.554Z,1015.64
2019-05-29T06:36:27.952Z,1015.67
2019-05-29T06:37:28.395Z,1015.71
2019-05-29T06:38:28.830Z,1015.71
2019-05-29T06:39:29.320Z,1015.71
2019-05-29T06:40:29.702Z,1015.72
2019-05-29T06:41:30.152Z,1015.73
2019-05-29T06:42:30.632Z,1015.74
2019-05-29T06:43:31.028Z,1015.85
2019-05-29T06:44:31.466Z,1015.79
2019-05-29T06:45:31.927Z,1015.84
2019-05-29T06:46:32.343Z,1015.81
2019-05-29T06:47:34.139Z,1015.80
2019-05-29T06:48:52.641Z,1015.85
2019-05-29T06:49:33.926Z,1015.83
2019-05-29T06:50:35.303Z,1015.85
2019-05-29T06:51:35.163Z,1015.88
2019-05-29T06:52:35.375Z,1015.89
2019-05-29T06:53:35.756Z,1015.92
2019-05-29T06:54:35.878Z,1015.96
2019-05-29T06:55:37.796Z,1015.88
2019-05-29T06:56:37.755Z,1015.96
2019-05-29T06:57:38.138Z,1015.97
2019-05-29T06:58:38.087Z,1016.00
2019-05-29T06:59:38.244Z,1016.00
2019-05-29T07:00:39.377Z,1015.95
2019-05-29T07:01:39.396Z,1015.95
2019-05-29T07:02:40.691Z,1015.92
2019-05-29T07:03:39.850Z,1016.00
2019-05-29T07:04:40.489Z,1015.95
2019-05-29T07:05:44.719Z,1015.97
2019-05-29T07:06:41.182Z,1016.02
2019-05-29T07:07:42.434Z,1016.02
2019-05-29T07:08:45.065Z,1016.03
2019-05-29T07:09:43.061Z,1016.09
2019-05-29T07:10:44.482Z,1016.08
2019-05-29T07:11:43.577Z,1016.07
2019-05-29T07:12:44.478Z,1016.08
2019-05-29T07:13:47.496Z,1016.13
2019-05-29T07:14:44.745Z,1016.13
2019-05-29T07:15:45.840Z,1016.17
2019-05-29T07:16:55.637Z,1016.19
2019-05-29T07:17:46.699Z,1016.27
2019-05-29T07:19:23.382Z,1016.26
2019-05-29T07:19:57.802Z,1016.28
2019-05-29T07:20:47.419Z,1016.30
2019-05-29T07:21:47.870Z,1016.29
2019-05-29T07:22:48.316Z,1016.33
2019-05-29T07:23:49.078Z,1016.35
2019-05-29T07:24:49.208Z,1016.36
2019-05-29T07:25:49.647Z,1016.38
2019-05-29T07:26:50.154Z,1016.39
2019-05-29T07:27:50.543Z,1016.38
2019-05-29T07:29:07.672Z,1016.40
2019-05-29T07:29:51.451Z,1016.40
2019-05-29T07:31:00.940Z,1016.41
2019-05-29T07:31:52.334Z,1016.45
2019-05-29T07:32:58.740Z,1016.44
2019-05-29T07:33:53.225Z,1016.49
2019-05-29T07:35:03.128Z,1016.45
2019-05-29T07:35:54.113Z,1016.44
2019-05-29T07:36:54.566Z,1016.46
2019-05-29T07:37:55.007Z,1016.44
2019-05-29T07:39:02.951Z,1016.45
2019-05-29T07:39:55.903Z,1016.50
2019-05-29T07:40:56.380Z,1016.45
2019-05-29T07:41:56.805Z,1016.45
2019-05-29T07:42:57.355Z,1016.52
2019-05-29T07:43:57.696Z,1016.51
2019-05-29T07:44:58.144Z,1016.56
2019-05-29T07:45:58.598Z,1016.55
2019-05-29T07:46:59.044Z,1016.55
2019-05-29T07:47:59.573Z,1016.57
2019-05-29T07:48:59.948Z,1016.59
2019-05-29T07:50:00.394Z,1016.60
2019-05-29T07:51:06.940Z,1016.65
2019-05-29T07:52:01.283Z,1016.68
2019-05-29T07:53:01.769Z,1016.66
2019-05-29T07:54:02.183Z,1016.67
2019-05-29T07:55:02.636Z,1016.70
2019-05-29T07:56:03.089Z,1016.67
2019-05-29T07:57:03.535Z,1016.69
2019-05-29T07:58:03.978Z,1016.64
2019-05-29T07:59:04.443Z,1016.63
2019-05-29T08:00:04.883Z,1016.62
2019-05-29T08:01:13.207Z,1016.62
2019-05-29T08:02:05.786Z,1016.66
2019-05-29T08:03:06.235Z,1016.65
2019-05-29T08:04:06.693Z,1016.64
2019-05-29T08:05:07.144Z,1016.69
2019-05-29T08:06:07.596Z,1016.70
2019-05-29T08:07:08.048Z,1016.76
2019-05-29T08:08:08.507Z,1016.76
2019-05-29T08:09:08.953Z,1016.75
2019-05-29T08:10:09.401Z,1016.76
2019-05-29T08:11:09.849Z,1016.77
2019-05-29T08:12:10.307Z,1016.78
2019-05-29T08:13:10.755Z,1016.81
2019-05-29T08:14:11.203Z,1016.82
2019-05-29T08:15:11.658Z,1016.87
2019-05-29T08:16:12.105Z,1016.87
2019-05-29T08:17:12.554Z,1016.94
2019-05-29T08:18:13.004Z,1016.88
2019-05-29T08:19:13.447Z,1016.91
2019-05-29T08:20:13.900Z,1016.92
2019-05-29T08:21:14.341Z,1016.94
2019-05-29T08:22:14.790Z,1016.92
2019-05-29T08:23:15.236Z,1016.89
2019-05-29T08:24:15.692Z,1016.90
2019-05-29T08:25:16.136Z,1016.89
2019-05-29T08:26:16.581Z,1016.95
2019-05-29T08:27:17.022Z,1016.97
2019-05-29T08:28:17.461Z,1016.95
2019-05-29T08:29:17.914Z,1016.98
2019-05-29T08:30:18.375Z,1017.00
2019-05-29T08:31:18.810Z,1017.02
2019-05-29T08:32:19.270Z,1017.01
2019-05-29T08:33:19.712Z,1016.99
2019-05-29T08:34:20.160Z,1017.01
2019-05-29T08:35:20.616Z,1017.01
2019-05-29T08:36:21.107Z,1016.96
2019-05-29T08:37:21.539Z,1016.96
2019-05-29T08:38:21.971Z,1017.05
2019-05-29T08:39:35.143Z,1017.06
2019-05-29T08:40:22.883Z,1016.99
2019-05-29T08:41:23.337Z,1017.01
2019-05-29T08:42:24.043Z,1017.02
2019-05-29T08:43:24.244Z,1017.04
2019-05-29T08:44:24.765Z,1017.02
2019-05-29T08:45:25.171Z,1017.01
2019-05-29T08:46:25.611Z,1017.00
2019-05-29T08:47:26.075Z,1017.00
2019-05-29T08:48:26.574Z,1017.03
2019-05-29T08:49:27.000Z,1017.05
2019-05-29T08:50:27.454Z,1017.04
2019-05-29T08:51:27.936Z,1017.00
2019-05-29T08:52:28.371Z,1017.07
2019-05-29T08:53:28.829Z,1017.08
2019-05-29T08:54:29.296Z,1017.10
2019-05-29T08:55:29.750Z,1017.13
2019-05-29T08:56:30.234Z,1017.17
2019-05-29T08:57:30.679Z,1017.16
2019-05-29T08:58:31.133Z,1017.21
2019-05-29T08:59:31.583Z,1017.28
2019-05-29T09:00:32.046Z,1017.28
2019-05-29T09:01:32.504Z,1017.30
2019-05-29T09:02:32.960Z,1017.33
2019-05-29T09:03:33.407Z,1017.25
2019-05-29T09:04:33.861Z,1017.29
2019-05-29T09:05:34.318Z,1017.30
2019-05-29T09:06:34.771Z,1017.30
2019-05-29T09:07:35.224Z,1017.31
2019-05-29T09:08:35.682Z,1017.27
2019-05-29T09:09:36.149Z,1017.30
2019-05-29T09:10:36.607Z,1017.27
2019-05-29T09:11:37.062Z,1017.20
2019-05-29T09:12:37.525Z,1017.27
2019-05-29T09:13:37.970Z,1017.37
2019-05-29T09:14:38.431Z,1017.35
2019-05-29T09:15:38.886Z,1017.35
2019-05-29T09:16:39.416Z,1017.34
2019-05-29T09:17:39.799Z,1017.33
2019-05-29T09:18:40.254Z,1017.32
2019-05-29T09:19:40.713Z,1017.37
2019-05-29T09:21:00.698Z,1017.38
2019-05-29T09:21:41.621Z,1017.43
2019-05-29T09:22:42.079Z,1017.43
2019-05-29T09:23:42.527Z,1017.42
2019-05-29T09:24:42.987Z,1017.43
2019-05-29T09:25:43.442Z,1017.47
2019-05-29T09:26:46.401Z,1017.45
2019-05-29T09:27:44.345Z,1017.33
2019-05-29T09:28:44.812Z,1017.39
2019-05-29T09:29:45.266Z,1017.36
2019-05-29T09:30:45.723Z,1017.35
2019-05-29T09:31:46.179Z,1017.39
2019-05-29T09:32:51.638Z,1017.34
2019-05-29T09:33:47.099Z,1017.35
2019-05-29T09:34:47.812Z,1017.41
2019-05-29T09:35:48.029Z,1017.36
2019-05-29T09:38:23.033Z,1017.52
2019-05-29T09:39:22.793Z,1017.53
2019-05-29T09:41:17.424Z,1017.51
2019-05-29T09:42:18.521Z,1017.47
2019-05-29T09:44:28.235Z,1017.44
2019-05-29T09:45:12.237Z,1017.47
2019-05-29T09:47:07.848Z,1017.45
2019-05-29T09:48:08.307Z,1017.45
2019-05-29T09:50:03.931Z,1017.45
2019-05-29T09:51:20.262Z,1017.47
2019-05-29T09:53:00.480Z,1017.47
2019-05-29T09:54:01.068Z,1017.52
2019-05-29T09:55:55.629Z,1017.50
2019-05-29T09:56:56.155Z,1017.54
2019-05-29T09:58:49.160Z,1017.56
2019-05-29T09:59:49.634Z,1017.63
2019-05-29T10:01:44.235Z,1017.73
2019-05-29T10:02:44.688Z,1017.72
2019-05-29T10:04:39.299Z,1017.69
2019-05-29T10:05:39.746Z,1017.72
2019-05-29T10:07:34.370Z,1017.68
2019-05-29T10:08:34.810Z,1017.68
2019-05-29T10:10:29.416Z,1017.70
2019-05-29T10:11:29.878Z,1017.71
2019-05-29T10:13:24.470Z,1017.68
2019-05-29T10:14:24.928Z,1017.70
2019-05-29T10:16:20.541Z,1017.71
2019-05-29T10:17:21.009Z,1017.62
2019-05-29T10:19:15.606Z,1017.66
2019-05-29T10:20:16.075Z,1017.66
2019-05-29T10:21:16.553Z,1017.74
2019-05-29T10:22:17.034Z,1017.73
2019-05-29T10:23:20.039Z,1017.71
2019-05-29T10:24:17.907Z,1017.77
2019-05-29T10:25:18.369Z,1017.87
2019-05-29T10:26:18.835Z,1017.82
2019-05-29T10:27:19.406Z,1017.82
2019-05-29T10:28:19.752Z,1017.83
2019-05-29T10:29:20.206Z,1017.84
2019-05-29T10:30:20.658Z,1017.84
2019-05-29T10:31:21.124Z,1017.87
2019-05-29T10:32:21.574Z,1017.84
2019-05-29T10:33:22.029Z,1017.81
2019-05-29T10:34:22.548Z,1017.78
2019-05-29T10:35:22.944Z,1017.76
2019-05-29T10:36:23.606Z,1017.78
2019-05-29T10:37:23.869Z,1017.80
2019-05-29T10:38:24.317Z,1017.74
2019-05-29T10:39:24.776Z,1017.77
2019-05-29T10:40:25.238Z,1017.78
2019-05-29T10:41:25.701Z,1017.76
2019-05-29T10:42:26.165Z,1017.74
2019-05-29T10:44:20.785Z,1017.76
2019-05-29T10:45:21.240Z,1017.85
2019-05-29T10:47:15.862Z,1017.80
2019-05-29T10:48:16.327Z,1017.79
2019-05-29T10:50:11.158Z,1017.79
2019-05-29T10:51:11.416Z,1017.73
2019-05-29T10:53:06.068Z,1017.76
2019-05-29T10:54:06.518Z,1017.84
2019-05-29T10:56:01.145Z,1017.78
2019-05-29T10:57:01.611Z,1017.86
2019-05-29T10:58:59.876Z,1017.90
2019-05-29T10:59:56.735Z,1017.90
2019-05-29T11:01:51.848Z,1018.02
2019-05-29T11:02:53.538Z,1017.99
2019-05-29T11:04:50.408Z,1017.90
2019-05-29T11:05:47.481Z,1017.97
2019-05-29T11:07:41.477Z,1017.93
2019-05-29T11:08:41.942Z,1017.94
2019-05-29T11:10:36.543Z,1017.92
2019-05-29T11:11:36.999Z,1017.93
2019-05-29T11:13:31.598Z,1017.87
2019-05-29T11:14:32.058Z,1017.88
2019-05-29T11:16:26.709Z,1017.85
2019-05-29T11:17:27.147Z,1017.85
2019-05-29T11:19:25.838Z,1017.81
2019-05-29T11:20:22.224Z,1017.84
2019-05-29T11:22:26.410Z,1017.83
2019-05-29T11:23:17.315Z,1017.75
2019-05-29T11:25:22.538Z,1017.88
2019-05-29T11:26:12.770Z,1017.92
2019-05-29T11:28:07.206Z,1017.90
2019-05-29T11:29:07.538Z,1017.85
2019-05-29T11:31:06.198Z,1017.84
2019-05-29T11:32:02.643Z,1017.80
2019-05-29T11:33:57.341Z,1017.91
2019-05-29T11:34:57.736Z,1017.93
2019-05-29T11:36:52.494Z,1017.95
2019-05-29T11:37:52.951Z,1017.98
2019-05-29T11:39:47.439Z,1017.85
2019-05-29T11:40:48.025Z,1017.91
2019-05-29T11:42:42.586Z,1017.90
2019-05-29T11:43:42.979Z,1017.92
2019-05-29T11:45:37.805Z,1017.91
2019-05-29T11:46:38.085Z,1017.95
2019-05-29T11:48:32.689Z,1017.89
2019-05-29T11:49:33.097Z,1017.90
2019-05-29T11:51:28.049Z,1017.93
2019-05-29T11:52:41.684Z,1017.96
2019-05-29T11:54:23.086Z,1017.94
2019-05-29T11:55:23.538Z,1017.90
2019-05-29T11:57:18.385Z,1017.87
2019-05-29T11:58:30.549Z,1017.84
2019-05-29T12:00:20.239Z,1017.85
2019-05-29T12:01:14.668Z,1017.83
2019-05-29T12:03:11.205Z,1017.91
2019-05-29T12:04:24.323Z,1017.90
2019-05-29T12:06:04.421Z,1017.93
2019-05-29T12:07:04.736Z,1017.88
2019-05-29T12:08:05.175Z,1017.88
2019-05-29T12:09:05.626Z,1017.90
2019-05-29T12:10:06.419Z,1017.94
2019-05-29T12:11:07.301Z,1017.95
2019-05-29T12:12:06.951Z,1017.91
2019-05-29T12:13:07.387Z,1017.94
2019-05-29T12:14:07.825Z,1017.99
2019-05-29T12:15:14.362Z,1017.94
2019-05-29T12:16:08.709Z,1017.93
2019-05-29T12:17:09.152Z,1017.93
2019-05-29T12:18:23.084Z,1017.90
2019-05-29T12:19:10.040Z,1017.89
2019-05-29T12:20:26.333Z,1017.90
2019-05-29T12:21:10.915Z,1017.90
2019-05-29T12:22:11.361Z,1017.86
2019-05-29T12:23:25.065Z,1017.90
2019-05-29T12:24:12.284Z,1017.86
2019-05-29T12:25:12.686Z,1017.87
2019-05-29T12:26:22.382Z,1017.82
2019-05-29T12:27:13.571Z,1017.85
2019-05-29T12:28:14.009Z,1017.88
2019-05-29T12:29:14.457Z,1017.84
2019-05-29T12:30:14.896Z,1017.86
2019-05-29T12:31:15.334Z,1017.87
2019-05-29T12:32:15.825Z,1017.90
2019-05-29T12:33:16.213Z,1017.87
2019-05-29T12:34:19.372Z,1017.90
2019-05-29T12:35:17.096Z,1017.92
2019-05-29T12:36:17.542Z,1017.93
2019-05-29T12:37:18.011Z,1017.87
2019-05-29T12:38:18.425Z,1017.98
2019-05-29T12:39:18.857Z,1017.95
2019-05-29T12:40:19.311Z,1017.96
2019-05-29T12:41:19.752Z,1017.97
2019-05-29T12:42:20.254Z,1017.98
2019-05-29T12:43:27.126Z,1017.97
2019-05-29T12:44:21.074Z,1017.95
2019-05-29T12:45:21.506Z,1017.97
2019-05-29T12:46:21.957Z,1017.99
2019-05-29T12:47:22.389Z,1017.94
2019-05-29T12:48:22.831Z,1017.97
2019-05-29T12:49:23.276Z,1018.01
2019-05-29T12:50:23.709Z,1017.99
2019-05-29T12:51:24.149Z,1017.96
2019-05-29T12:52:24.609Z,1017.99
2019-05-29T12:53:30.315Z,1017.98
2019-05-29T12:54:25.471Z,1017.95
2019-05-29T12:55:25.915Z,1017.94
2019-05-29T12:56:26.352Z,1017.98
2019-05-29T12:57:26.795Z,1017.98
2019-05-29T12:58:27.231Z,1017.96
2019-05-29T12:59:27.669Z,1017.93
2019-05-29T13:00:28.120Z,1017.99
2019-05-29T13:01:28.554Z,1017.98
2019-05-29T13:02:28.996Z,1017.99
2019-05-29T13:03:29.444Z,1017.97
2019-05-29T13:04:29.885Z,1017.90
2019-05-29T13:05:30.311Z,1017.90
2019-05-29T13:06:30.750Z,1017.90
2019-05-29T13:07:31.194Z,1017.92
2019-05-29T13:08:31.627Z,1017.88
2019-05-29T13:09:32.105Z,1017.92
2019-05-29T13:10:32.514Z,1017.91
2019-05-29T13:11:32.945Z,1017.97
2019-05-29T13:12:33.430Z,1017.98
2019-05-29T13:13:33.824Z,1017.95
2019-05-29T13:14:34.265Z,1017.89
2019-05-29T13:15:34.702Z,1017.91
2019-05-29T13:16:35.141Z,1017.92
2019-05-29T13:17:35.595Z,1017.80
2019-05-29T13:18:36.020Z,1017.89
2019-05-29T13:19:36.479Z,1017.90
2019-05-29T13:20:36.905Z,1017.91
2019-05-29T13:21:37.338Z,1017.93
2019-05-29T13:22:37.792Z,1017.93
2019-05-29T13:23:45.192Z,1017.95
2019-05-29T13:24:38.656Z,1017.94
2019-05-29T13:25:39.104Z,1017.90
2019-05-29T13:26:39.534Z,1017.89
2019-05-29T13:27:39.975Z,1017.89
2019-05-29T13:28:40.417Z,1017.87
2019-05-29T13:29:40.856Z,1017.87
2019-05-29T13:30:41.354Z,1017.90
2019-05-29T13:31:41.732Z,1017.86
2019-05-29T13:32:42.733Z,1017.84
2019-05-29T13:33:42.607Z,1017.85
2019-05-29T13:34:43.055Z,1017.85
2019-05-29T13:35:43.494Z,1017.87
2019-05-29T13:36:43.960Z,1017.81
2019-05-29T13:37:44.369Z,1017.83
2019-05-29T13:38:44.813Z,1017.82
2019-05-29T13:39:45.259Z,1017.84
2019-05-29T13:40:45.688Z,1017.84
2019-05-29T13:41:46.137Z,1017.85
2019-05-29T13:42:46.565Z,1017.85
2019-05-29T13:43:47.007Z,1017.80
2019-05-29T13:44:47.487Z,1017.86
2019-05-29T13:45:47.899Z,1017.89
2019-05-29T13:46:48.363Z,1017.85
2019-05-29T13:47:48.777Z,1017.83
2019-05-29T13:48:49.202Z,1017.88
2019-05-29T13:49:49.642Z,1017.83
2019-05-29T13:50:50.085Z,1017.83
2019-05-29T13:51:50.555Z,1017.82
2019-05-29T13:52:50.995Z,1017.89
2019-05-29T13:54:02.525Z,1017.85
2019-05-29T13:54:51.847Z,1017.88
2019-05-29T13:55:52.278Z,1017.81
2019-05-29T13:56:52.760Z,1017.84
2019-05-29T13:57:53.161Z,1017.84
2019-05-29T13:58:53.633Z,1017.82
2019-05-29T13:59:54.043Z,1017.92
2019-05-29T14:00:54.498Z,1017.91
2019-05-29T14:01:54.927Z,1017.90
2019-05-29T14:02:55.369Z,1017.86
2019-05-29T14:03:55.801Z,1017.88
2019-05-29T14:04:56.238Z,1017.92
2019-05-29T14:05:56.680Z,1017.97
2019-05-29T14:06:58.490Z,1017.90
2019-05-29T14:07:58.524Z,1017.91
2019-05-29T14:08:58.981Z,1017.91
2019-05-29T14:09:58.892Z,1017.90
2019-05-29T14:10:59.202Z,1017.91